Time;durP1;ratioP1;P1;durP2;ratioP2;P2;SDS_P1;SDS_P2;PMS_P1;PMS_P2;Temp;Humidity;BMP_temperature;BMP_pressure;BME280_temperature;BME280_humidity;BME280_pressure;Samples;Min_cycle;Max_cycle;Signal;HPM_P1;HPM_P2
2023/12/26 00:00:39;;;;;;;9.88;1.92;;;;;;;;;;5117790;28;20035;-63
2023/12/26 00:03:06;;;;;;;7.32;1.80;;;;;;;;;;5123716;28;20035;-63
2023/12/26 00:05:33;;;;;;;7.22;1.52;;;;;;;;;;5102765;28;20036;-63
2023/12/26 00:08:02;;;;;;;9.02;1.55;;;;;;;;;;5098020;28;20052;-63
2023/12/26 00:10:29;;;;;;;5.85;1.58;;;;;;;;;;5117195;28;20429;-63
2023/12/26 00:12:55;;;;;;;9.65;1.75;;;;;;;;;;5121568;28;20119;-63
2023/12/26 00:15:21;;;;;;;8.63;1.55;;;;;;;;;;5100748;28;20039;-63
2023/12/26 00:17:47;;;;;;;10.60;1.40;;;;;;;;;;5101791;28;20031;-63
2023/12/26 00:20:14;;;;;;;12.57;3.05;;;;;;;;;;5122205;27;20039;-63
2023/12/26 00:22:40;;;;;;;12.88;2.28;;;;;;;;;;5102541;27;20047;-63
2023/12/26 00:25:06;;;;;;;11.43;1.73;;;;;;;;;;5118003;27;20390;-64
2023/12/26 00:27:33;;;;;;;14.98;1.63;;;;;;;;;;5100897;27;20123;-63
2023/12/26 00:29:59;;;;;;;15.50;1.77;;;;;;;;;;5101730;27;20047;-63
2023/12/26 00:32:25;;;;;;;10.30;2.15;;;;;;;;;;5101883;27;20107;-63
2023/12/26 00:34:51;;;;;;;17.92;2.42;;;;;;;;;;5102404;27;20130;-63
2023/12/26 00:37:17;;;;;;;23.67;4.07;;;;;;;;;;5098461;27;20043;-63
2023/12/26 00:39:45;;;;;;;20.60;2.95;;;;;;;;;;5101013;27;21457;-63
2023/12/26 00:42:11;;;;;;;13.85;2.05;;;;;;;;;;5098574;27;20120;-63
2023/12/26 00:44:38;;;;;;;18.15;2.35;;;;;;;;;;5124149;27;20053;-63
2023/12/26 00:47:04;;;;;;;16.33;3.20;;;;;;;;;;5103029;27;20043;-63
2023/12/26 00:49:30;;;;;;;19.13;2.40;;;;;;;;;;5104925;27;20054;-63
2023/12/26 00:51:56;;;;;;;22.75;4.05;;;;;;;;;;5086530;27;20470;-63
2023/12/26 00:54:23;;;;;;;21.42;2.67;;;;;;;;;;5121869;27;20039;-63
2023/12/26 00:56:49;;;;;;;22.95;2.22;;;;;;;;;;5107951;27;20130;-63
2023/12/26 00:59:15;;;;;;;22.85;2.88;;;;;;;;;;5101519;27;20408;-63
2023/12/26 01:01:41;;;;;;;22.85;2.67;;;;;;;;;;5112031;27;20087;-63
2023/12/26 01:04:08;;;;;;;28.05;3.63;;;;;;;;;;5100429;27;20047;-63
2023/12/26 01:06:34;;;;;;;24.67;3.47;;;;;;;;;;5106001;27;20633;-63
2023/12/26 01:09:01;;;;;;;18.08;2.47;;;;;;;;;;5117462;27;20588;-63
2023/12/26 01:11:27;;;;;;;26.10;2.78;;;;;;;;;;5100644;27;20050;-63
2023/12/26 01:13:53;;;;;;;23.80;3.22;;;;;;;;;;5099941;27;20140;-63
2023/12/26 01:16:20;;;;;;;21.38;2.53;;;;;;;;;;5098854;27;20140;-63
2023/12/26 01:18:47;;;;;;;21.75;2.97;;;;;;;;;;5101328;27;20398;-63
2023/12/26 01:21:13;;;;;;;26.67;4.07;;;;;;;;;;5118642;27;20054;-63
2023/12/26 01:23:39;;;;;;;21.83;3.15;;;;;;;;;;5099257;27;20065;-63
2023/12/26 01:26:05;;;;;;;20.98;3.00;;;;;;;;;;5115811;27;20078;-63
2023/12/26 01:28:32;;;;;;;20.98;4.07;;;;;;;;;;5094435;27;20809;-63
2023/12/26 01:30:58;;;;;;;24.23;2.80;;;;;;;;;;5120816;27;20046;-63
2023/12/26 01:33:24;;;;;;;17.25;2.72;;;;;;;;;;5098035;27;20043;-63
2023/12/26 01:35:50;;;;;;;27.80;4.28;;;;;;;;;;5119239;27;20084;-63
2023/12/26 01:38:17;;;;;;;16.83;3.33;;;;;;;;;;5103311;27;20055;-63
2023/12/26 01:40:43;;;;;;;17.08;2.63;;;;;;;;;;5101940;27;20183;-63
2023/12/26 01:43:09;;;;;;;18.08;2.40;;;;;;;;;;5119053;27;20514;-63
2023/12/26 01:45:35;;;;;;;20.05;2.75;;;;;;;;;;5118857;27;20551;-63
2023/12/26 01:48:03;;;;;;;25.08;3.53;;;;;;;;;;5079520;27;20080;-64
2023/12/26 01:50:30;;;;;;;27.65;4.25;;;;;;;;;;5101527;27;20072;-63
2023/12/26 01:52:56;;;;;;;27.13;2.95;;;;;;;;;;5121254;27;20043;-63
2023/12/26 01:55:23;;;;;;;17.33;2.80;;;;;;;;;;5099865;27;20423;-63
2023/12/26 01:57:49;;;;;;;18.20;3.00;;;;;;;;;;5100672;27;20057;-63
2023/12/26 02:00:17;;;;;;;20.15;3.33;;;;;;;;;;5121625;27;20126;-63
2023/12/26 02:02:44;;;;;;;18.77;2.92;;;;;;;;;;5097705;27;20085;-63
2023/12/26 02:05:12;;;;;;;21.00;3.35;;;;;;;;;;5120327;27;20054;-63
2023/12/26 02:07:38;;;;;;;18.75;3.92;;;;;;;;;;5116636;27;20367;-63
2023/12/26 02:10:06;;;;;;;22.80;3.70;;;;;;;;;;5099174;27;20096;-63
2023/12/26 02:12:32;;;;;;;26.30;4.57;;;;;;;;;;5100234;27;20052;-63
2023/12/26 02:14:58;;;;;;;19.73;2.92;;;;;;;;;;5086373;27;20050;-63
2023/12/26 02:17:25;;;;;;;17.55;3.05;;;;;;;;;;5118683;27;20035;-63
2023/12/26 02:19:51;;;;;;;23.65;3.38;;;;;;;;;;5119131;27;20473;-63
2023/12/26 02:22:18;;;;;;;27.23;3.95;;;;;;;;;;5119490;27;20679;-63
2023/12/26 02:24:44;;;;;;;20.33;3.67;;;;;;;;;;5100635;27;20485;-63
2023/12/26 02:27:14;;;;;;;14.65;2.70;;;;;;;;;;5103712;27;20067;-63
2023/12/26 02:29:41;;;;;;;31.45;3.28;;;;;;;;;;5089931;28;20039;-63
2023/12/26 02:32:08;;;;;;;14.43;3.10;;;;;;;;;;5098571;28;20044;-63
2023/12/26 02:34:34;;;;;;;14.57;2.95;;;;;;;;;;5099303;28;20049;-63
2023/12/26 02:37:00;;;;;;;18.55;3.05;;;;;;;;;;5102657;28;20055;-63
2023/12/26 02:39:27;;;;;;;22.55;5.32;;;;;;;;;;5081475;28;20055;-63
2023/12/26 02:41:54;;;;;;;21.50;3.47;;;;;;;;;;5080142;28;20130;-63
2023/12/26 02:44:20;;;;;;;20.63;2.90;;;;;;;;;;5100171;28;20394;-63
2023/12/26 02:46:46;;;;;;;19.35;2.40;;;;;;;;;;5083037;28;20074;-63
2023/12/26 02:49:12;;;;;;;14.15;3.33;;;;;;;;;;5083837;28;20469;-63
2023/12/26 02:51:39;;;;;;;18.92;2.95;;;;;;;;;;5084199;28;20170;-63
2023/12/26 02:54:05;;;;;;;20.88;3.40;;;;;;;;;;5103207;28;20051;-63
2023/12/26 02:56:31;;;;;;;18.80;3.20;;;;;;;;;;5102663;28;20035;-63
2023/12/26 02:58:57;;;;;;;25.27;3.40;;;;;;;;;;5083542;27;20040;-63
2023/12/26 03:01:23;;;;;;;19.25;2.55;;;;;;;;;;5085185;28;20463;-63
2023/12/26 03:03:50;;;;;;;24.73;4.00;;;;;;;;;;5082028;28;20126;-63
2023/12/26 03:06:16;;;;;;;17.80;2.80;;;;;;;;;;5097792;28;20118;-63
2023/12/26 03:08:42;;;;;;;15.00;2.85;;;;;;;;;;5067672;28;20428;-63
2023/12/26 03:11:08;;;;;;;16.08;3.10;;;;;;;;;;5080214;28;20075;-63
2023/12/26 03:13:34;;;;;;;19.10;3.35;;;;;;;;;;5099061;28;20104;-63
2023/12/26 03:16:01;;;;;;;22.20;3.22;;;;;;;;;;5101263;28;20490;-63
2023/12/26 03:18:27;;;;;;;18.17;4.35;;;;;;;;;;5105017;28;20059;-63
2023/12/26 03:20:53;;;;;;;19.15;3.53;;;;;;;;;;5083722;28;20043;-63
2023/12/26 03:23:19;;;;;;;19.42;4.05;;;;;;;;;;5101869;28;20040;-63
2023/12/26 03:25:45;;;;;;;19.77;3.38;;;;;;;;;;5085284;28;20537;-63
2023/12/26 03:28:12;;;;;;;22.25;3.80;;;;;;;;;;5084009;28;20052;-63
2023/12/26 03:30:38;;;;;;;20.77;3.00;;;;;;;;;;5100494;27;20440;-63
2023/12/26 03:33:04;;;;;;;27.98;4.07;;;;;;;;;;5115832;27;20378;-63
2023/12/26 03:35:30;;;;;;;21.90;3.15;;;;;;;;;;5099059;28;20498;-64
2023/12/26 03:37:57;;;;;;;24.17;3.90;;;;;;;;;;5114457;28;20039;-63
2023/12/26 03:40:23;;;;;;;19.25;3.55;;;;;;;;;;5119149;28;20039;-63
2023/12/26 03:42:50;;;;;;;24.80;4.13;;;;;;;;;;5096469;28;20467;-63
2023/12/26 03:45:16;;;;;;;22.33;4.72;;;;;;;;;;5098003;28;20389;-63
2023/12/26 03:47:42;;;;;;;27.08;4.40;;;;;;;;;;5098718;28;20107;-63
2023/12/26 03:50:10;;;;;;;26.67;3.47;;;;;;;;;;5098974;28;20046;-63
2023/12/26 03:52:37;;;;;;;24.13;5.22;;;;;;;;;;5099889;28;21173;-63
2023/12/26 03:55:03;;;;;;;28.35;5.38;;;;;;;;;;5100919;27;20130;-63
2023/12/26 03:57:30;;;;;;;25.02;4.72;;;;;;;;;;5100656;27;20483;-63
2023/12/26 03:59:56;;;;;;;26.20;3.35;;;;;;;;;;5121430;27;20506;-64
2023/12/26 04:02:22;;;;;;;23.52;3.53;;;;;;;;;;5098629;27;20596;-63
2023/12/26 04:04:49;;;;;;;26.95;5.97;;;;;;;;;;5104059;27;20057;-63
2023/12/26 04:07:15;;;;;;;17.10;3.25;;;;;;;;;;5103339;27;20076;-63
2023/12/26 04:09:42;;;;;;;22.15;3.28;;;;;;;;;;5108443;27;20074;-63
2023/12/26 04:12:09;;;;;;;21.33;3.78;;;;;;;;;;5101382;27;20088;-63
2023/12/26 04:14:35;;;;;;;29.25;4.50;;;;;;;;;;5120633;27;20046;-63
2023/12/26 04:17:01;;;;;;;19.70;3.20;;;;;;;;;;5101300;27;20419;-63
2023/12/26 04:19:27;;;;;;;23.83;3.88;;;;;;;;;;5120250;27;20049;-63
2023/12/26 04:21:54;;;;;;;17.55;2.90;;;;;;;;;;5102758;27;20046;-63
2023/12/26 04:24:20;;;;;;;17.42;3.03;;;;;;;;;;5121772;27;20073;-63
2023/12/26 04:26:46;;;;;;;27.25;5.47;;;;;;;;;;5101707;27;20046;-63
2023/12/26 04:29:13;;;;;;;23.90;4.50;;;;;;;;;;5101131;27;20495;-63
2023/12/26 04:31:39;;;;;;;25.75;2.90;;;;;;;;;;5101410;27;20140;-63
2023/12/26 04:34:05;;;;;;;26.02;3.45;;;;;;;;;;5100324;27;20055;-63
2023/12/26 04:36:37;;;;;;;21.90;3.65;;;;;;;;;;5100886;27;20331;-63
2023/12/26 04:39:04;;;;;;;24.27;3.97;;;;;;;;;;5120348;27;20051;-63
2023/12/26 04:41:32;;;;;;;22.70;4.05;;;;;;;;;;5121564;27;20078;-63
2023/12/26 04:43:58;;;;;;;18.77;2.90;;;;;;;;;;5126600;27;20489;-63
2023/12/26 04:46:24;;;;;;;19.75;2.75;;;;;;;;;;5097941;27;20177;-63
2023/12/26 04:48:51;;;;;;;20.42;3.05;;;;;;;;;;5104422;27;20080;-63
2023/12/26 04:51:18;;;;;;;26.27;5.47;;;;;;;;;;5101478;27;20069;-63
2023/12/26 04:53:46;;;;;;;15.63;3.25;;;;;;;;;;5099941;27;20510;-63
2023/12/26 04:56:18;;;;;;;21.55;3.05;;;;;;;;;;5101147;27;20055;-63
2023/12/26 04:58:49;;;;;;;23.83;4.03;;;;;;;;;;5098696;27;20039;-63
2023/12/26 05:01:15;;;;;;;12.90;2.97;;;;;;;;;;5119943;27;20042;-63
2023/12/26 05:03:42;;;;;;;21.58;3.45;;;;;;;;;;5099322;27;20047;-63
2023/12/26 05:06:08;;;;;;;22.88;4.78;;;;;;;;;;5100546;27;20080;-64
2023/12/26 05:08:37;;;;;;;20.95;3.03;;;;;;;;;;5085282;27;20083;-63
2023/12/26 05:11:03;;;;;;;23.38;3.90;;;;;;;;;;5100590;27;20035;-63
2023/12/26 05:13:29;;;;;;;25.70;3.85;;;;;;;;;;5100221;27;20043;-63
2023/12/26 05:15:55;;;;;;;26.58;3.90;;;;;;;;;;5100921;27;20032;-63
2023/12/26 05:18:21;;;;;;;21.05;3.70;;;;;;;;;;5098469;27;20047;-64
2023/12/26 05:20:48;;;;;;;16.35;2.88;;;;;;;;;;5100724;27;20126;-63
2023/12/26 05:23:14;;;;;;;21.95;2.95;;;;;;;;;;5117579;27;20039;-63
2023/12/26 05:25:40;;;;;;;13.93;2.75;;;;;;;;;;5118441;27;20046;-63
2023/12/26 05:28:06;;;;;;;17.98;2.70;;;;;;;;;;5098404;27;20070;-63
2023/12/26 05:30:33;;;;;;;12.57;2.42;;;;;;;;;;5102177;27;20047;-63
2023/12/26 05:32:59;;;;;;;19.52;3.30;;;;;;;;;;5118195;27;20040;-63
2023/12/26 05:35:26;;;;;;;23.95;3.63;;;;;;;;;;5118933;27;20386;-63
2023/12/26 05:37:52;;;;;;;20.80;3.53;;;;;;;;;;5100923;27;20055;-63
2023/12/26 05:40:18;;;;;;;19.77;3.53;;;;;;;;;;5086329;27;20463;-63
2023/12/26 05:42:44;;;;;;;42.65;4.15;;;;;;;;;;5120361;27;20449;-63
2023/12/26 05:45:10;;;;;;;13.63;3.30;;;;;;;;;;5099141;27;20040;-63
2023/12/26 05:47:37;;;;;;;16.98;2.90;;;;;;;;;;5117946;27;20043;-63
2023/12/26 05:50:03;;;;;;;21.00;3.38;;;;;;;;;;5102462;27;20072;-63
2023/12/26 05:52:29;;;;;;;19.30;3.75;;;;;;;;;;5122387;27;20039;-63
2023/12/26 05:54:55;;;;;;;21.63;3.67;;;;;;;;;;5102535;27;20217;-63
2023/12/26 05:57:22;;;;;;;21.83;3.00;;;;;;;;;;5123608;27;20043;-64
2023/12/26 05:59:48;;;;;;;19.88;3.40;;;;;;;;;;5101406;27;20043;-63
2023/12/26 06:02:14;;;;;;;25.83;4.55;;;;;;;;;;5103042;27;20218;-63
2023/12/26 06:04:40;;;;;;;24.90;3.35;;;;;;;;;;5106724;27;20398;-63
2023/12/26 06:07:07;;;;;;;23.33;4.88;;;;;;;;;;5124336;27;20130;-63
2023/12/26 06:09:34;;;;;;;21.30;3.70;;;;;;;;;;5085785;27;20180;-63
2023/12/26 06:12:00;;;;;;;24.70;4.05;;;;;;;;;;5127048;27;20050;-63
2023/12/26 06:14:26;;;;;;;22.05;4.00;;;;;;;;;;5104293;27;20071;-63
2023/12/26 06:16:52;;;;;;;20.63;3.10;;;;;;;;;;5102167;27;20138;-63
2023/12/26 06:19:19;;;;;;;18.25;3.58;;;;;;;;;;5124519;27;20047;-63
2023/12/26 06:21:45;;;;;;;24.15;3.85;;;;;;;;;;5103544;27;20040;-63
2023/12/26 06:24:11;;;;;;;19.95;3.47;;;;;;;;;;5123262;27;20477;-63
2023/12/26 06:26:37;;;;;;;27.65;4.55;;;;;;;;;;5123378;27;20058;-63
2023/12/26 06:29:03;;;;;;;23.55;3.70;;;;;;;;;;5125108;27;20089;-63
2023/12/26 06:31:30;;;;;;;25.60;4.00;;;;;;;;;;5125307;27;20043;-63
2023/12/26 06:33:56;;;;;;;22.23;4.57;;;;;;;;;;5125143;27;20076;-63
2023/12/26 06:36:22;;;;;;;30.70;3.85;;;;;;;;;;5106929;27;20062;-63
2023/12/26 06:38:48;;;;;;;25.63;4.90;;;;;;;;;;5102440;27;20058;-63
2023/12/26 06:41:15;;;;;;;28.65;4.32;;;;;;;;;;5099255;27;20132;-63
2023/12/26 06:43:41;;;;;;;34.80;6.05;;;;;;;;;;5097458;27;20528;-63
2023/12/26 06:46:07;;;;;;;31.27;4.20;;;;;;;;;;5099242;27;20172;-63
2023/12/26 06:48:33;;;;;;;25.98;4.10;;;;;;;;;;5115119;27;20151;-63
2023/12/26 06:51:03;;;;;;;23.35;3.42;;;;;;;;;;5115429;27;20054;-63
2023/12/26 06:53:29;;;;;;;21.45;3.70;;;;;;;;;;5100285;27;20075;-63
2023/12/26 06:55:56;;;;;;;26.58;4.15;;;;;;;;;;5097113;27;20118;-63
2023/12/26 06:58:22;;;;;;;24.40;4.03;;;;;;;;;;5094907;27;20055;-63
2023/12/26 07:00:48;;;;;;;20.30;3.20;;;;;;;;;;5100428;27;20043;-63
2023/12/26 07:03:15;;;;;;;26.15;4.57;;;;;;;;;;5101928;27;20116;-63
2023/12/26 07:05:41;;;;;;;22.73;3.67;;;;;;;;;;5097807;28;20051;-63
2023/12/26 07:08:07;;;;;;;30.60;5.30;;;;;;;;;;5105744;27;20107;-64
2023/12/26 07:10:33;;;;;;;18.45;3.67;;;;;;;;;;5100976;27;20379;-63
2023/12/26 07:12:59;;;;;;;24.52;4.32;;;;;;;;;;5098632;28;20040;-63
2023/12/26 07:15:26;;;;;;;24.33;4.18;;;;;;;;;;5099833;27;20046;-63
2023/12/26 07:17:52;;;;;;;24.02;4.07;;;;;;;;;;5097755;27;20104;-63
2023/12/26 07:20:19;;;;;;;18.90;3.58;;;;;;;;;;5101084;28;20436;-65
2023/12/26 07:22:46;;;;;;;25.17;4.22;;;;;;;;;;5116300;27;20046;-63
2023/12/26 07:25:12;;;;;;;20.17;4.10;;;;;;;;;;5116505;27;20142;-63
2023/12/26 07:27:38;;;;;;;21.88;4.63;;;;;;;;;;5122549;27;20043;-63
2023/12/26 07:30:05;;;;;;;41.05;5.53;;;;;;;;;;5099874;28;20654;-63
2023/12/26 07:32:31;;;;;;;18.55;3.28;;;;;;;;;;5121860;27;20478;-63
2023/12/26 07:34:57;;;;;;;22.60;4.57;;;;;;;;;;5121810;27;20138;-63
2023/12/26 07:37:24;;;;;;;21.90;4.07;;;;;;;;;;5102816;28;20031;-63
2023/12/26 07:39:50;;;;;;;23.05;3.08;;;;;;;;;;5120798;28;20059;-63
2023/12/26 07:42:16;;;;;;;19.52;3.45;;;;;;;;;;5098996;28;20048;-63
2023/12/26 07:44:42;;;;;;;30.60;4.03;;;;;;;;;;5118335;28;20398;-63
2023/12/26 07:47:09;;;;;;;24.30;3.88;;;;;;;;;;5104564;28;20042;-63
2023/12/26 07:49:35;;;;;;;21.85;4.32;;;;;;;;;;5121619;28;21258;-63
2023/12/26 07:52:01;;;;;;;26.13;3.50;;;;;;;;;;5102712;27;20040;-64
2023/12/26 07:54:27;;;;;;;23.77;4.32;;;;;;;;;;5100718;28;20055;-63
2023/12/26 07:56:53;;;;;;;23.90;5.95;;;;;;;;;;5117897;27;20455;-64
2023/12/26 07:59:20;;;;;;;27.08;4.90;;;;;;;;;;5103153;28;20118;-63
2023/12/26 08:01:46;;;;;;;24.20;4.30;;;;;;;;;;5119723;28;20389;-63
2023/12/26 08:04:12;;;;;;;32.83;4.13;;;;;;;;;;5119073;28;20134;-63
2023/12/26 08:06:38;;;;;;;23.90;4.03;;;;;;;;;;5103590;28;20424;-63
2023/12/26 08:09:05;;;;;;;25.30;4.38;;;;;;;;;;5123438;28;20054;-63
2023/12/26 08:11:31;;;;;;;23.98;4.05;;;;;;;;;;5103057;28;20608;-63
2023/12/26 08:13:57;;;;;;;29.58;4.90;;;;;;;;;;5104367;28;20052;-63
2023/12/26 08:16:24;;;;;;;21.23;4.00;;;;;;;;;;5101084;28;20043;-63
2023/12/26 08:18:50;;;;;;;20.38;3.47;;;;;;;;;;5123140;27;20042;-63
2023/12/26 08:21:16;;;;;;;21.60;3.88;;;;;;;;;;5078789;28;20043;-63
2023/12/26 08:23:42;;;;;;;25.50;3.58;;;;;;;;;;5100341;28;20478;-63
2023/12/26 08:26:09;;;;;;;20.55;4.70;;;;;;;;;;5106279;28;20035;-62
2023/12/26 08:28:35;;;;;;;22.10;3.85;;;;;;;;;;5119262;28;20091;-63
2023/12/26 08:31:02;;;;;;;23.75;4.05;;;;;;;;;;5105486;28;20039;-63
2023/12/26 08:33:29;;;;;;;22.70;5.20;;;;;;;;;;5102409;28;20051;-62
2023/12/26 08:35:56;;;;;;;24.15;3.78;;;;;;;;;;5105116;28;20508;-63
2023/12/26 08:38:23;;;;;;;29.30;4.93;;;;;;;;;;5117200;28;20043;-63
2023/12/26 08:40:50;;;;;;;22.52;4.10;;;;;;;;;;5099595;28;20131;-63
2023/12/26 08:43:16;;;;;;;21.40;3.58;;;;;;;;;;5104285;27;20051;-63
2023/12/26 08:45:43;;;;;;;28.08;3.88;;;;;;;;;;5102679;27;20043;-63
2023/12/26 08:48:09;;;;;;;28.05;4.53;;;;;;;;;;5130767;27;20039;-63
2023/12/26 08:50:36;;;;;;;23.45;4.95;;;;;;;;;;5108444;27;20054;-64
2023/12/26 08:53:02;;;;;;;19.95;2.85;;;;;;;;;;5107288;27;20111;-62
2023/12/26 08:55:28;;;;;;;22.17;3.80;;;;;;;;;;5123175;27;20046;-62
2023/12/26 08:57:54;;;;;;;26.63;3.97;;;;;;;;;;5102363;27;20343;-62
2023/12/26 09:00:21;;;;;;;17.77;2.42;;;;;;;;;;5123881;27;20042;-62
2023/12/26 09:02:48;;;;;;;19.60;4.03;;;;;;;;;;5124622;27;20054;-62
2023/12/26 09:05:14;;;;;;;25.70;4.00;;;;;;;;;;5104331;27;20054;-62
2023/12/26 09:07:41;;;;;;;25.20;4.50;;;;;;;;;;5102993;27;20425;-62
2023/12/26 09:10:07;;;;;;;20.58;3.45;;;;;;;;;;5122431;27;20443;-62
2023/12/26 09:12:34;;;;;;;27.17;4.07;;;;;;;;;;5115188;27;20055;-62
2023/12/26 09:15:00;;;;;;;19.38;3.22;;;;;;;;;;5105538;27;20085;-62
2023/12/26 09:17:26;;;;;;;30.75;4.03;;;;;;;;;;5123856;27;20035;-62
2023/12/26 09:19:52;;;;;;;23.67;3.95;;;;;;;;;;5127162;27;20122;-62
2023/12/26 09:22:19;;;;;;;19.30;4.05;;;;;;;;;;5122687;27;20190;-62
2023/12/26 09:24:45;;;;;;;24.73;3.70;;;;;;;;;;5100558;27;20047;-62
2023/12/26 09:27:11;;;;;;;24.80;4.25;;;;;;;;;;5102617;27;20122;-63
2023/12/26 09:29:37;;;;;;;23.63;3.15;;;;;;;;;;5123976;27;20204;-63
2023/12/26 09:32:04;;;;;;;18.75;4.63;;;;;;;;;;5103856;27;20158;-62
2023/12/26 09:34:31;;;;;;;25.40;5.32;;;;;;;;;;5126571;27;20043;-62
2023/12/26 09:36:57;;;;;;;21.85;3.25;;;;;;;;;;5103974;27;20371;-62
2023/12/26 09:39:23;;;;;;;29.27;3.65;;;;;;;;;;5121862;27;20552;-62
2023/12/26 09:41:57;;;;;;;17.52;3.00;;;;;;;;;;5100734;27;20133;-62
2023/12/26 09:44:23;;;;;;;27.52;4.13;;;;;;;;;;5121639;27;20100;-62
2023/12/26 09:46:51;;;;;;;19.08;3.38;;;;;;;;;;5120636;27;20042;-62
2023/12/26 09:49:17;;;;;;;19.92;3.72;;;;;;;;;;5124267;27;20049;-62
2023/12/26 09:51:45;;;;;;;39.30;5.03;;;;;;;;;;5102792;27;20039;-64
2023/12/26 09:54:12;;;;;;;27.65;3.60;;;;;;;;;;5122008;27;20418;-62
2023/12/26 09:56:40;;;;;;;22.00;4.07;;;;;;;;;;5102337;27;20478;-62
2023/12/26 09:59:08;;;;;;;18.50;3.33;;;;;;;;;;5122240;27;20047;-62
2023/12/26 10:01:34;;;;;;;19.33;3.50;;;;;;;;;;5096906;27;20201;-62
2023/12/26 10:04:01;;;;;;;23.58;3.90;;;;;;;;;;5104866;27;20486;-62
2023/12/26 10:06:27;;;;;;;22.50;3.92;;;;;;;;;;5120672;27;20038;-62
2023/12/26 10:08:53;;;;;;;22.27;3.92;;;;;;;;;;5116310;27;20406;-66
2023/12/26 10:11:21;;;;;;;19.85;3.47;;;;;;;;;;5102383;27;20046;-63
2023/12/26 10:13:54;;;;;;;27.85;4.55;;;;;;;;;;5101453;27;20039;-63
2023/12/26 10:16:21;;;;;;;26.17;3.78;;;;;;;;;;5104547;27;20047;-63
2023/12/26 10:18:47;;;;;;;19.27;3.85;;;;;;;;;;5102989;27;20122;-63
2023/12/26 10:21:14;;;;;;;21.15;4.90;;;;;;;;;;5116116;27;20049;-63
2023/12/26 10:23:40;;;;;;;17.60;3.55;;;;;;;;;;5119839;27;20165;-69
2023/12/26 10:26:07;;;;;;;26.25;4.32;;;;;;;;;;5097804;27;20051;-69
2023/12/26 10:28:37;;;;;;;22.00;4.03;;;;;;;;;;5115122;27;20055;-63
2023/12/26 10:31:13;;;;;;;21.30;3.97;;;;;;;;;;5117135;27;20512;-63
2023/12/26 10:33:40;;;;;;;22.85;4.57;;;;;;;;;;5100657;27;20071;-62
2023/12/26 10:36:07;;;;;;;21.92;3.72;;;;;;;;;;5114342;27;20236;-64
2023/12/26 10:38:34;;;;;;;23.85;5.60;;;;;;;;;;5102259;27;20035;-64
2023/12/26 10:41:01;;;;;;;15.15;3.88;;;;;;;;;;5100409;27;20134;-64
2023/12/26 10:43:29;;;;;;;27.42;4.05;;;;;;;;;;5099032;27;20034;-64
2023/12/26 10:45:57;;;;;;;25.02;4.45;;;;;;;;;;5117095;27;20095;-64
2023/12/26 10:48:25;;;;;;;21.15;3.95;;;;;;;;;;5116030;27;20040;-64
2023/12/26 10:50:53;;;;;;;24.13;5.88;;;;;;;;;;5082611;27;20039;-64
2023/12/26 10:53:21;;;;;;;24.38;3.83;;;;;;;;;;5100468;27;20052;-64
2023/12/26 10:55:47;;;;;;;25.80;5.38;;;;;;;;;;5114601;27;20039;-64
2023/12/26 10:58:23;;;;;;;22.38;3.80;;;;;;;;;;5123500;27;20043;-64
2023/12/26 13:52:12;;;;;;;8.77;1.15;;;;;;;;;;5118099;27;20076;-64
2023/12/26 13:54:38;;;;;;;10.20;1.30;;;;;;;;;;5121750;27;20134;-64
2023/12/26 13:57:06;;;;;;;10.20;1.50;;;;;;;;;;5107054;27;20043;-64
2023/12/26 13:59:32;;;;;;;12.15;2.25;;;;;;;;;;5119388;27;20391;-64
2023/12/26 14:01:59;;;;;;;11.38;1.38;;;;;;;;;;5102639;27;20051;-64
2023/12/26 14:04:25;;;;;;;12.93;1.80;;;;;;;;;;5108560;27;20039;-64
2023/12/26 14:06:51;;;;;;;16.23;1.50;;;;;;;;;;5105148;27;20398;-64
2023/12/26 14:09:18;;;;;;;6.40;1.13;;;;;;;;;;5126417;27;20596;-64
2023/12/26 14:11:44;;;;;;;12.82;1.58;;;;;;;;;;5122643;27;20076;-64
2023/12/26 14:14:10;;;;;;;13.65;1.90;;;;;;;;;;5101968;27;20066;-64
2023/12/26 14:16:36;;;;;;;9.90;1.50;;;;;;;;;;5107131;27;20254;-64
2023/12/26 14:19:03;;;;;;;5.70;1.10;;;;;;;;;;5118982;27;20054;-64
2023/12/26 14:21:29;;;;;;;10.60;1.17;;;;;;;;;;5104462;27;20039;-64
2023/12/26 14:23:55;;;;;;;6.40;1.13;;;;;;;;;;5105222;27;20130;-64
2023/12/26 14:26:21;;;;;;;13.52;2.08;;;;;;;;;;5126365;27;20051;-64
2023/12/26 14:29:07;;;;;;;10.70;1.23;;;;;;;;;;5102812;27;20226;-64
2023/12/26 14:31:52;;;;;;;10.73;1.23;;;;;;;;;;5126310;27;20100;-64
2023/12/26 14:34:55;;;;;;;8.18;1.52;;;;;;;;;;5123691;27;20101;-64
2023/12/26 14:37:40;;;;;;;7.40;1.33;;;;;;;;;;5104989;27;20451;-64
2023/12/26 14:40:25;;;;;;;8.85;1.73;;;;;;;;;;5120278;27;20044;-64
2023/12/26 14:43:10;;;;;;;11.27;1.92;;;;;;;;;;5087417;27;20047;-65
2023/12/26 14:45:55;;;;;;;14.40;1.90;;;;;;;;;;5102453;28;20115;-64
2023/12/26 14:48:40;;;;;;;8.85;1.40;;;;;;;;;;5100842;27;20100;-64
2023/12/26 14:51:25;;;;;;;8.90;1.83;;;;;;;;;;5126171;27;20151;-64
2023/12/26 14:54:12;;;;;;;8.05;1.08;;;;;;;;;;5103197;27;20036;-64
2023/12/26 14:56:56;;;;;;;9.73;1.20;;;;;;;;;;5124272;27;20119;-64
2023/12/26 14:59:41;;;;;;;8.23;1.30;;;;;;;;;;5102307;27;20183;-64
2023/12/26 15:02:07;;;;;;;9.52;1.85;;;;;;;;;;5101155;27;20039;-64
2023/12/26 15:04:34;;;;;;;9.52;1.30;;;;;;;;;;5120080;27;20065;-64
2023/12/26 15:07:01;;;;;;;8.32;1.25;;;;;;;;;;5124133;27;20031;-64
2023/12/26 15:09:28;;;;;;;6.78;1.70;;;;;;;;;;5100512;27;20100;-64
2023/12/26 15:11:55;;;;;;;8.63;2.10;;;;;;;;;;5082735;27;20058;-64
2023/12/26 15:14:21;;;;;;;9.90;1.23;;;;;;;;;;5104977;27;20176;-64
2023/12/26 15:16:47;;;;;;;10.02;2.78;;;;;;;;;;5105071;27;20046;-64
2023/12/26 15:19:14;;;;;;;11.50;1.85;;;;;;;;;;5105510;27;20153;-64
2023/12/26 15:21:41;;;;;;;7.28;1.55;;;;;;;;;;5105491;27;20043;-64
2023/12/26 15:24:08;;;;;;;9.25;1.88;;;;;;;;;;5083828;27;20047;-64
2023/12/26 15:26:34;;;;;;;10.55;1.58;;;;;;;;;;5101273;27;20130;-64
2023/12/26 15:29:00;;;;;;;10.85;1.30;;;;;;;;;;5104688;28;20055;-64
2023/12/26 15:31:27;;;;;;;14.68;1.52;;;;;;;;;;5123391;27;20755;-64
2023/12/26 15:33:54;;;;;;;14.55;1.90;;;;;;;;;;5121675;27;20497;-64
2023/12/26 15:36:21;;;;;;;14.23;1.67;;;;;;;;;;5104873;28;20046;-64
2023/12/26 15:38:48;;;;;;;13.82;1.63;;;;;;;;;;5122257;28;20039;-64
2023/12/26 15:41:14;;;;;;;15.60;2.03;;;;;;;;;;5102224;28;20036;-64
2023/12/26 15:43:41;;;;;;;10.57;1.83;;;;;;;;;;5121438;28;20046;-64
2023/12/26 15:46:23;;;;;;;14.95;2.22;;;;;;;;;;5101103;28;20039;-64
2023/12/26 15:48:50;;;;;;;11.57;3.00;;;;;;;;;;5121702;28;20047;-64
2023/12/26 15:51:19;;;;;;;14.38;2.78;;;;;;;;;;5122409;27;20031;-64
2023/12/26 15:53:45;;;;;;;10.07;1.80;;;;;;;;;;5126809;27;20048;-64
2023/12/26 15:56:12;;;;;;;19.00;2.35;;;;;;;;;;5110449;27;20059;-64
2023/12/26 15:58:38;;;;;;;14.88;1.75;;;;;;;;;;5127185;27;20072;-64
2023/12/26 16:01:05;;;;;;;20.45;2.55;;;;;;;;;;5127968;27;20047;-64
2023/12/26 16:03:31;;;;;;;14.90;2.17;;;;;;;;;;5128129;27;20115;-64
2023/12/26 16:05:57;;;;;;;12.75;2.17;;;;;;;;;;5108723;27;20468;-64
2023/12/26 16:08:24;;;;;;;10.75;2.00;;;;;;;;;;5108620;27;20109;-64
2023/12/26 16:10:50;;;;;;;13.20;2.67;;;;;;;;;;5105459;27;20051;-64
2023/12/26 16:13:17;;;;;;;15.10;2.00;;;;;;;;;;5125281;27;20042;-64
2023/12/26 16:15:43;;;;;;;16.55;2.90;;;;;;;;;;5106559;27;20113;-64
2023/12/26 16:18:10;;;;;;;22.75;3.50;;;;;;;;;;5107105;27;20050;-64
2023/12/26 16:20:36;;;;;;;18.75;3.30;;;;;;;;;;5125406;27;20071;-64
2023/12/26 16:23:05;;;;;;;24.60;3.08;;;;;;;;;;5124950;27;20048;-64
2023/12/26 16:25:33;;;;;;;19.15;3.45;;;;;;;;;;5108647;27;20074;-64
2023/12/26 16:27:59;;;;;;;16.20;2.53;;;;;;;;;;5127283;27;20116;-64
2023/12/26 16:30:25;;;;;;;12.35;1.90;;;;;;;;;;5109563;27;20062;-64
2023/12/26 16:32:52;;;;;;;16.70;4.78;;;;;;;;;;5124669;27;20402;-64
2023/12/26 16:35:18;;;;;;;17.40;2.17;;;;;;;;;;5106223;27;20100;-64
2023/12/26 16:37:45;;;;;;;17.05;3.28;;;;;;;;;;5125805;27;20084;-64
2023/12/26 16:40:12;;;;;;;21.40;2.25;;;;;;;;;;5119068;27;20046;-64
2023/12/26 16:42:38;;;;;;;19.58;2.63;;;;;;;;;;5120445;27;20047;-64
2023/12/26 16:45:04;;;;;;;13.65;2.03;;;;;;;;;;5122813;27;20050;-64
2023/12/26 16:47:31;;;;;;;12.75;2.08;;;;;;;;;;5120598;27;20046;-64
2023/12/26 16:49:58;;;;;;;18.35;2.20;;;;;;;;;;5119753;27;20054;-64
2023/12/26 16:52:24;;;;;;;17.55;2.03;;;;;;;;;;5103209;27;20043;-64
2023/12/26 16:54:54;;;;;;;17.38;2.50;;;;;;;;;;5081407;27;20551;-64
2023/12/26 16:57:21;;;;;;;15.15;2.50;;;;;;;;;;5103243;27;20058;-64
2023/12/26 16:59:48;;;;;;;13.15;2.50;;;;;;;;;;5123562;27;20031;-64
2023/12/26 17:02:15;;;;;;;15.45;2.55;;;;;;;;;;5120599;27;20084;-64
2023/12/26 17:04:41;;;;;;;16.35;2.35;;;;;;;;;;5104799;27;20041;-64
2023/12/26 17:07:08;;;;;;;16.73;1.90;;;;;;;;;;5107157;27;20078;-64
2023/12/26 17:09:34;;;;;;;17.58;2.25;;;;;;;;;;5100130;27;20051;-64
2023/12/26 17:12:00;;;;;;;13.48;2.20;;;;;;;;;;5103303;27;20059;-64
2023/12/26 17:14:26;;;;;;;12.55;1.65;;;;;;;;;;5123161;27;20427;-64
2023/12/26 17:16:52;;;;;;;15.63;2.38;;;;;;;;;;5122663;27;20152;-64
2023/12/26 17:19:19;;;;;;;14.57;2.10;;;;;;;;;;5104430;27;20135;-64
2023/12/26 17:21:45;;;;;;;15.32;1.92;;;;;;;;;;5104055;27;20118;-64